sensor_id;sensor_type;location;lat;lon;timestamp;temperature;humidity
73277;DHT22;61501;43.316;5.372;2023-04-25T00:00:52;16.60;83.30
73277;DHT22;61501;43.316;5.372;2023-04-25T00:03:18;16.50;84.90
73277;DHT22;61501;43.316;5.372;2023-04-25T00:05:44;16.60;86.20
73277;DHT22;61501;43.316;5.372;2023-04-25T00:08:11;16.50;88.20
73277;DHT22;61501;43.316;5.372;2023-04-25T00:10:36;16.50;89.50
73277;DHT22;61501;43.316;5.372;2023-04-25T00:13:02;16.50;89.80
73277;DHT22;61501;43.316;5.372;2023-04-25T00:15:28;16.50;90.40
73277;DHT22;61501;43.316;5.372;2023-04-25T00:17:56;16.50;90.40
73277;DHT22;61501;43.316;5.372;2023-04-25T00:20:22;16.50;90.70
73277;DHT22;61501;43.316;5.372;2023-04-25T00:22:49;16.50;90.60
73277;DHT22;61501;43.316;5.372;2023-04-25T00:25:15;16.40;91.00
73277;DHT22;61501;43.316;5.372;2023-04-25T00:27:40;16.40;91.30
73277;DHT22;61501;43.316;5.372;2023-04-25T00:30:07;16.40;91.50
73277;DHT22;61501;43.316;5.372;2023-04-25T00:32:33;16.40;92.30
73277;DHT22;61501;43.316;5.372;2023-04-25T00:34:59;16.40;91.50
73277;DHT22;61501;43.316;5.372;2023-04-25T00:37:25;16.40;92.20
73277;DHT22;61501;43.316;5.372;2023-04-25T00:39:51;16.40;92.50
73277;DHT22;61501;43.316;5.372;2023-04-25T00:42:19;16.40;92.50
73277;DHT22;61501;43.316;5.372;2023-04-25T00:44:45;16.40;92.70
73277;DHT22;61501;43.316;5.372;2023-04-25T00:47:11;16.40;93.30
73277;DHT22;61501;43.316;5.372;2023-04-25T00:49:37;16.40;94.20
73277;DHT22;61501;43.316;5.372;2023-04-25T00:52:03;16.30;95.00
73277;DHT22;61501;43.316;5.372;2023-04-25T00:54:29;16.40;96.00
73277;DHT22;61501;43.316;5.372;2023-04-25T00:56:56;16.30;95.60
73277;DHT22;61501;43.316;5.372;2023-04-25T00:59:22;16.40;95.70
73277;DHT22;61501;43.316;5.372;2023-04-25T01:01:48;16.30;96.10
73277;DHT22;61501;43.316;5.372;2023-04-25T01:04:13;16.30;94.60
73277;DHT22;61501;43.316;5.372;2023-04-25T01:06:40;16.30;94.90
73277;DHT22;61501;43.316;5.372;2023-04-25T01:09:06;16.30;95.20
73277;DHT22;61501;43.316;5.372;2023-04-25T01:11:32;16.30;93.30
73277;DHT22;61501;43.316;5.372;2023-04-25T01:13:58;16.30;94.20
73277;DHT22;61501;43.316;5.372;2023-04-25T01:16:23;16.30;93.90
73277;DHT22;61501;43.316;5.372;2023-04-25T01:18:50;16.30;93.60
73277;DHT22;61501;43.316;5.372;2023-04-25T01:21:16;16.40;94.30
73277;DHT22;61501;43.316;5.372;2023-04-25T01:23:42;16.40;93.70
73277;DHT22;61501;43.316;5.372;2023-04-25T01:26:10;16.40;93.70
73277;DHT22;61501;43.316;5.372;2023-04-25T01:28:37;16.40;93.60
73277;DHT22;61501;43.316;5.372;2023-04-25T01:31:05;16.40;92.90
73277;DHT22;61501;43.316;5.372;2023-04-25T01:33:31;16.30;92.50
73277;DHT22;61501;43.316;5.372;2023-04-25T01:35:56;16.40;91.90
73277;DHT22;61501;43.316;5.372;2023-04-25T01:38:22;16.30;91.90
73277;DHT22;61501;43.316;5.372;2023-04-25T01:40:49;16.30;92.10
73277;DHT22;61501;43.316;5.372;2023-04-25T01:43:16;16.30;92.10
73277;DHT22;61501;43.316;5.372;2023-04-25T01:45:42;16.20;92.70
73277;DHT22;61501;43.316;5.372;2023-04-25T01:48:12;16.20;93.10
73277;DHT22;61501;43.316;5.372;2023-04-25T01:50:39;16.20;93.50
73277;DHT22;61501;43.316;5.372;2023-04-25T01:53:05;16.10;93.90
73277;DHT22;61501;43.316;5.372;2023-04-25T01:55:31;16.10;93.90
73277;DHT22;61501;43.316;5.372;2023-04-25T01:57:56;16.10;94.10
73277;DHT22;61501;43.316;5.372;2023-04-25T02:00:22;16.10;94.90
73277;DHT22;61501;43.316;5.372;2023-04-25T02:02:48;16.10;94.00
73277;DHT22;61501;43.316;5.372;2023-04-25T02:05:16;16.00;94.00
73277;DHT22;61501;43.316;5.372;2023-04-25T02:07:42;16.00;94.30
73277;DHT22;61501;43.316;5.372;2023-04-25T02:10:08;16.00;94.00
73277;DHT22;61501;43.316;5.372;2023-04-25T02:12:34;16.00;93.90
73277;DHT22;61501;43.316;5.372;2023-04-25T02:15:00;16.00;93.70
73277;DHT22;61501;43.316;5.372;2023-04-25T02:17:26;16.00;93.10
73277;DHT22;61501;43.316;5.372;2023-04-25T02:19:51;16.00;92.10
73277;DHT22;61501;43.316;5.372;2023-04-25T02:22:17;16.00;91.70
73277;DHT22;61501;43.316;5.372;2023-04-25T02:24:43;16.00;92.00
73277;DHT22;61501;43.316;5.372;2023-04-25T02:27:08;15.90;91.70
73277;DHT22;61501;43.316;5.372;2023-04-25T02:29:34;15.90;91.00
73277;DHT22;61501;43.316;5.372;2023-04-25T02:32:00;15.90;90.00
73277;DHT22;61501;43.316;5.372;2023-04-25T02:34:25;15.90;89.90
73277;DHT22;61501;43.316;5.372;2023-04-25T02:36:51;15.90;90.10
73277;DHT22;61501;43.316;5.372;2023-04-25T02:39:17;15.90;89.10
73277;DHT22;61501;43.316;5.372;2023-04-25T02:41:43;15.90;86.90
73277;DHT22;61501;43.316;5.372;2023-04-25T02:44:08;15.90;87.30
73277;DHT22;61501;43.316;5.372;2023-04-25T02:46:34;15.90;86.80
73277;DHT22;61501;43.316;5.372;2023-04-25T02:48:59;15.90;85.60
73277;DHT22;61501;43.316;5.372;2023-04-25T02:51:25;15.90;84.70
73277;DHT22;61501;43.316;5.372;2023-04-25T02:53:51;15.80;84.90
73277;DHT22;61501;43.316;5.372;2023-04-25T02:56:17;15.90;85.20
73277;DHT22;61501;43.316;5.372;2023-04-25T02:58:42;15.80;85.20
73277;DHT22;61501;43.316;5.372;2023-04-25T03:01:08;15.90;85.30
73277;DHT22;61501;43.316;5.372;2023-04-25T03:03:34;15.80;85.40
73277;DHT22;61501;43.316;5.372;2023-04-25T03:06:00;15.80;85.70
73277;DHT22;61501;43.316;5.372;2023-04-25T03:08:25;15.80;85.40
73277;DHT22;61501;43.316;5.372;2023-04-25T03:10:54;15.80;84.50
73277;DHT22;61501;43.316;5.372;2023-04-25T03:13:21;15.80;85.50
73277;DHT22;61501;43.316;5.372;2023-04-25T03:15:46;15.80;84.80
73277;DHT22;61501;43.316;5.372;2023-04-25T03:18:12;15.80;84.30
73277;DHT22;61501;43.316;5.372;2023-04-25T03:20:37;15.80;84.80
73277;DHT22;61501;43.316;5.372;2023-04-25T03:23:04;15.80;85.20
73277;DHT22;61501;43.316;5.372;2023-04-25T03:25:30;15.70;84.80
73277;DHT22;61501;43.316;5.372;2023-04-25T03:27:56;15.70;84.80
73277;DHT22;61501;43.316;5.372;2023-04-25T03:30:22;15.70;85.40
73277;DHT22;61501;43.316;5.372;2023-04-25T03:32:47;15.70;85.20
73277;DHT22;61501;43.316;5.372;2023-04-25T03:35:13;15.70;85.50
73277;DHT22;61501;43.316;5.372;2023-04-25T03:37:39;15.70;85.10
73277;DHT22;61501;43.316;5.372;2023-04-25T03:40:06;15.70;85.40
73277;DHT22;61501;43.316;5.372;2023-04-25T03:42:32;15.70;85.70
73277;DHT22;61501;43.316;5.372;2023-04-25T03:44:57;15.70;86.10
73277;DHT22;61501;43.316;5.372;2023-04-25T03:47:23;15.70;86.20
73277;DHT22;61501;43.316;5.372;2023-04-25T03:49:49;15.70;84.80
73277;DHT22;61501;43.316;5.372;2023-04-25T03:52:17;15.70;84.80
73277;DHT22;61501;43.316;5.372;2023-04-25T03:54:42;15.60;84.70
73277;DHT22;61501;43.316;5.372;2023-04-25T03:57:08;15.60;85.20
73277;DHT22;61501;43.316;5.372;2023-04-25T03:59:33;15.70;84.90
73277;DHT22;61501;43.316;5.372;2023-04-25T04:01:59;15.60;84.40
73277;DHT22;61501;43.316;5.372;2023-04-25T04:04:25;15.60;84.60
73277;DHT22;61501;43.316;5.372;2023-04-25T04:06:50;15.60;85.70
73277;DHT22;61501;43.316;5.372;2023-04-25T04:09:17;15.60;85.40
73277;DHT22;61501;43.316;5.372;2023-04-25T04:11:43;15.60;86.70
73277;DHT22;61501;43.316;5.372;2023-04-25T04:14:09;15.60;87.90
73277;DHT22;61501;43.316;5.372;2023-04-25T04:16:35;15.60;88.50
73277;DHT22;61501;43.316;5.372;2023-04-25T04:19:02;15.60;90.00
73277;DHT22;61501;43.316;5.372;2023-04-25T04:21:28;15.60;90.10
73277;DHT22;61501;43.316;5.372;2023-04-25T04:23:54;15.60;90.70
73277;DHT22;61501;43.316;5.372;2023-04-25T04:26:20;15.50;91.00
73277;DHT22;61501;43.316;5.372;2023-04-25T04:28:49;15.50;91.60
73277;DHT22;61501;43.316;5.372;2023-04-25T04:31:16;15.50;92.10
73277;DHT22;61501;43.316;5.372;2023-04-25T04:33:45;15.50;92.10
73277;DHT22;61501;43.316;5.372;2023-04-25T04:36:11;15.40;92.40
73277;DHT22;61501;43.316;5.372;2023-04-25T04:38:36;15.40;92.40
73277;DHT22;61501;43.316;5.372;2023-04-25T04:41:02;15.40;92.70
73277;DHT22;61501;43.316;5.372;2023-04-25T04:43:28;15.40;92.90
73277;DHT22;61501;43.316;5.372;2023-04-25T04:45:55;15.40;93.10
73277;DHT22;61501;43.316;5.372;2023-04-25T04:48:21;15.40;93.10
73277;DHT22;61501;43.316;5.372;2023-04-25T04:50:47;15.40;92.70
73277;DHT22;61501;43.316;5.372;2023-04-25T04:53:13;15.40;92.60
73277;DHT22;61501;43.316;5.372;2023-04-25T04:55:39;15.30;92.90
73277;DHT22;61501;43.316;5.372;2023-04-25T04:58:07;15.30;92.90
73277;DHT22;61501;43.316;5.372;2023-04-25T05:00:32;15.30;92.80
73277;DHT22;61501;43.316;5.372;2023-04-25T05:02:58;15.40;93.00
73277;DHT22;61501;43.316;5.372;2023-04-25T05:05:24;15.40;92.60
73277;DHT22;61501;43.316;5.372;2023-04-25T05:07:50;15.40;92.20
73277;DHT22;61501;43.316;5.372;2023-04-25T05:10:18;15.40;92.30
73277;DHT22;61501;43.316;5.372;2023-04-25T05:12:43;15.40;92.30
73277;DHT22;61501;43.316;5.372;2023-04-25T05:15:09;15.40;92.40
73277;DHT22;61501;43.316;5.372;2023-04-25T05:17:35;15.50;92.10
73277;DHT22;61501;43.316;5.372;2023-04-25T05:20:01;15.50;91.80
73277;DHT22;61501;43.316;5.372;2023-04-25T05:22:28;15.50;91.80
73277;DHT22;61501;43.316;5.372;2023-04-25T05:24:53;15.50;91.80
73277;DHT22;61501;43.316;5.372;2023-04-25T05:27:19;15.50;90.90
73277;DHT22;61501;43.316;5.372;2023-04-25T05:29:45;15.50;91.00
73277;DHT22;61501;43.316;5.372;2023-04-25T05:32:11;15.50;91.10
73277;DHT22;61501;43.316;5.372;2023-04-25T05:34:36;15.50;90.50
73277;DHT22;61501;43.316;5.372;2023-04-25T05:37:03;15.60;90.70
73277;DHT22;61501;43.316;5.372;2023-04-25T05:39:28;15.60;90.90
73277;DHT22;61501;43.316;5.372;2023-04-25T05:41:54;15.60;90.50
73277;DHT22;61501;43.316;5.372;2023-04-25T05:44:20;15.60;90.40
73277;DHT22;61501;43.316;5.372;2023-04-25T05:46:45;15.60;90.20
73277;DHT22;61501;43.316;5.372;2023-04-25T05:49:11;15.60;90.30
73277;DHT22;61501;43.316;5.372;2023-04-25T05:51:36;15.60;90.20
73277;DHT22;61501;43.316;5.372;2023-04-25T05:54:02;15.60;89.80
73277;DHT22;61501;43.316;5.372;2023-04-25T05:56:28;15.60;89.20
73277;DHT22;61501;43.316;5.372;2023-04-25T05:58:53;15.60;89.60
73277;DHT22;61501;43.316;5.372;2023-04-25T06:01:19;15.60;89.70
73277;DHT22;61501;43.316;5.372;2023-04-25T06:03:45;15.50;89.50
73277;DHT22;61501;43.316;5.372;2023-04-25T06:06:11;15.60;90.00
73277;DHT22;61501;43.316;5.372;2023-04-25T06:08:37;15.50;89.60
73277;DHT22;61501;43.316;5.372;2023-04-25T06:11:04;15.60;89.00
73277;DHT22;61501;43.316;5.372;2023-04-25T06:13:29;15.60;89.50
73277;DHT22;61501;43.316;5.372;2023-04-25T06:15:55;15.60;89.60
73277;DHT22;61501;43.316;5.372;2023-04-25T06:18:21;15.60;88.70
73277;DHT22;61501;43.316;5.372;2023-04-25T06:20:47;15.60;87.60
73277;DHT22;61501;43.316;5.372;2023-04-25T06:23:12;15.70;88.00
73277;DHT22;61501;43.316;5.372;2023-04-25T06:25:38;15.70;87.90
73277;DHT22;61501;43.316;5.372;2023-04-25T06:28:03;15.80;87.20
73277;DHT22;61501;43.316;5.372;2023-04-25T06:30:29;15.80;86.70
73277;DHT22;61501;43.316;5.372;2023-04-25T06:32:55;15.80;88.10
73277;DHT22;61501;43.316;5.372;2023-04-25T06:35:21;15.80;88.30
73277;DHT22;61501;43.316;5.372;2023-04-25T06:37:46;15.80;89.70
73277;DHT22;61501;43.316;5.372;2023-04-25T06:40:12;15.80;88.20
73277;DHT22;61501;43.316;5.372;2023-04-25T06:42:38;15.80;90.00
73277;DHT22;61501;43.316;5.372;2023-04-25T06:45:04;15.80;89.60
73277;DHT22;61501;43.316;5.372;2023-04-25T06:47:29;15.90;89.00
73277;DHT22;61501;43.316;5.372;2023-04-25T06:49:55;16.00;88.50
73277;DHT22;61501;43.316;5.372;2023-04-25T06:52:21;16.00;88.50
73277;DHT22;61501;43.316;5.372;2023-04-25T06:54:46;16.10;87.50
73277;DHT22;61501;43.316;5.372;2023-04-25T06:57:12;16.20;85.70
73277;DHT22;61501;43.316;5.372;2023-04-25T06:59:38;16.20;84.40
73277;DHT22;61501;43.316;5.372;2023-04-25T07:02:03;16.30;85.20
73277;DHT22;61501;43.316;5.372;2023-04-25T07:04:29;16.50;84.70
73277;DHT22;61501;43.316;5.372;2023-04-25T07:06:56;16.50;84.50
73277;DHT22;61501;43.316;5.372;2023-04-25T07:09:22;16.70;82.80
73277;DHT22;61501;43.316;5.372;2023-04-25T07:11:47;16.60;82.70
73277;DHT22;61501;43.316;5.372;2023-04-25T07:14:13;16.60;83.80
73277;DHT22;61501;43.316;5.372;2023-04-25T07:16:39;16.60;84.50
73277;DHT22;61501;43.316;5.372;2023-04-25T07:19:05;16.60;85.10
73277;DHT22;61501;43.316;5.372;2023-04-25T07:21:30;16.50;86.00
73277;DHT22;61501;43.316;5.372;2023-04-25T07:23:57;16.50;81.80
73277;DHT22;61501;43.316;5.372;2023-04-25T07:26:22;16.50;81.70
73277;DHT22;61501;43.316;5.372;2023-04-25T07:28:48;16.60;79.20
73277;DHT22;61501;43.316;5.372;2023-04-25T07:31:16;16.60;79.00
73277;DHT22;61501;43.316;5.372;2023-04-25T07:33:44;16.60;76.20
73277;DHT22;61501;43.316;5.372;2023-04-25T07:36:11;16.70;75.10
73277;DHT22;61501;43.316;5.372;2023-04-25T07:38:36;16.80;74.70
73277;DHT22;61501;43.316;5.372;2023-04-25T07:41:02;16.90;74.80
73277;DHT22;61501;43.316;5.372;2023-04-25T07:43:27;16.80;74.20
73277;DHT22;61501;43.316;5.372;2023-04-25T07:45:53;16.60;74.80
73277;DHT22;61501;43.316;5.372;2023-04-25T07:48:19;16.60;77.10
73277;DHT22;61501;43.316;5.372;2023-04-25T07:50:45;16.60;76.10
73277;DHT22;61501;43.316;5.372;2023-04-25T07:53:10;16.50;75.60
73277;DHT22;61501;43.316;5.372;2023-04-25T07:55:36;16.60;75.20
73277;DHT22;61501;43.316;5.372;2023-04-25T07:58:08;16.70;73.50
73277;DHT22;61501;43.316;5.372;2023-04-25T08:00:35;16.70;73.40
73277;DHT22;61501;43.316;5.372;2023-04-25T08:03:01;16.70;74.10
73277;DHT22;61501;43.316;5.372;2023-04-25T08:05:26;16.80;73.00
73277;DHT22;61501;43.316;5.372;2023-04-25T08:07:52;16.80;71.50
73277;DHT22;61501;43.316;5.372;2023-04-25T08:10:17;16.90;75.10
73277;DHT22;61501;43.316;5.372;2023-04-25T08:12:43;17.00;76.10
73277;DHT22;61501;43.316;5.372;2023-04-25T08:15:09;17.10;75.80
73277;DHT22;61501;43.316;5.372;2023-04-25T08:17:35;17.00;77.70
73277;DHT22;61501;43.316;5.372;2023-04-25T08:20:01;17.10;74.30
73277;DHT22;61501;43.316;5.372;2023-04-25T08:22:29;17.30;74.70
73277;DHT22;61501;43.316;5.372;2023-04-25T08:24:55;17.20;71.80
73277;DHT22;61501;43.316;5.372;2023-04-25T08:27:21;17.30;69.30
73277;DHT22;61501;43.316;5.372;2023-04-25T08:29:47;17.30;68.00
73277;DHT22;61501;43.316;5.372;2023-04-25T08:32:12;17.30;68.00
73277;DHT22;61501;43.316;5.372;2023-04-25T08:34:38;17.30;68.50
73277;DHT22;61501;43.316;5.372;2023-04-25T08:37:08;17.30;67.00
73277;DHT22;61501;43.316;5.372;2023-04-25T08:39:35;17.20;67.80
73277;DHT22;61501;43.316;5.372;2023-04-25T08:42:02;17.30;66.90
73277;DHT22;61501;43.316;5.372;2023-04-25T08:44:33;17.40;66.80
73277;DHT22;61501;43.316;5.372;2023-04-25T08:46:59;17.30;67.70
73277;DHT22;61501;43.316;5.372;2023-04-25T08:49:25;17.40;69.30
73277;DHT22;61501;43.316;5.372;2023-04-25T08:51:52;17.40;69.00
73277;DHT22;61501;43.316;5.372;2023-04-25T08:54:20;17.40;68.80
73277;DHT22;61501;43.316;5.372;2023-04-25T08:56:49;17.60;68.40
73277;DHT22;61501;43.316;5.372;2023-04-25T08:59:15;17.70;67.90
73277;DHT22;61501;43.316;5.372;2023-04-25T09:01:40;17.90;65.60
73277;DHT22;61501;43.316;5.372;2023-04-25T09:04:06;17.90;66.40
73277;DHT22;61501;43.316;5.372;2023-04-25T09:06:32;17.90;67.70
73277;DHT22;61501;43.316;5.372;2023-04-25T09:09:07;18.00;66.40
73277;DHT22;61501;43.316;5.372;2023-04-25T09:11:33;17.90;65.70
73277;DHT22;61501;43.316;5.372;2023-04-25T09:19:27;18.20;63.20
73277;DHT22;61501;43.316;5.372;2023-04-25T09:22:04;18.30;63.10
73277;DHT22;61501;43.316;5.372;2023-04-25T09:24:42;18.20;62.40
73277;DHT22;61501;43.316;5.372;2023-04-25T09:27:10;18.30;64.40
73277;DHT22;61501;43.316;5.372;2023-04-25T09:29:39;18.40;65.30
73277;DHT22;61501;43.316;5.372;2023-04-25T09:34:42;18.60;65.40
73277;DHT22;61501;43.316;5.372;2023-04-25T09:37:11;18.50;65.00
73277;DHT22;61501;43.316;5.372;2023-04-25T09:39:38;18.40;61.90
73277;DHT22;61501;43.316;5.372;2023-04-25T09:42:04;18.20;61.90
73277;DHT22;61501;43.316;5.372;2023-04-25T09:44:30;18.20;62.60
73277;DHT22;61501;43.316;5.372;2023-04-25T09:46:56;18.20;61.30
73277;DHT22;61501;43.316;5.372;2023-04-25T09:49:22;18.10;61.70
73277;DHT22;61501;43.316;5.372;2023-04-25T09:51:58;18.00;61.70
73277;DHT22;61501;43.316;5.372;2023-04-25T09:54:25;18.10;61.60
73277;DHT22;61501;43.316;5.372;2023-04-25T09:56:54;18.00;61.80
73277;DHT22;61501;43.316;5.372;2023-04-25T09:59:21;18.10;61.10
73277;DHT22;61501;43.316;5.372;2023-04-25T10:01:48;18.10;61.70
73277;DHT22;61501;43.316;5.372;2023-04-25T10:04:19;18.30;61.80
73277;DHT22;61501;43.316;5.372;2023-04-25T10:06:48;18.30;59.60
73277;DHT22;61501;43.316;5.372;2023-04-25T10:09:15;18.60;58.00
73277;DHT22;61501;43.316;5.372;2023-04-25T10:11:41;18.70;59.00
73277;DHT22;61501;43.316;5.372;2023-04-25T10:14:08;18.70;61.30
73277;DHT22;61501;43.316;5.372;2023-04-25T10:16:35;18.60;61.20
73277;DHT22;61501;43.316;5.372;2023-04-25T10:19:02;18.80;61.40
73277;DHT22;61501;43.316;5.372;2023-04-25T10:21:28;18.60;63.60
73277;DHT22;61501;43.316;5.372;2023-04-25T10:23:56;18.80;60.30
73277;DHT22;61501;43.316;5.372;2023-04-25T10:26:23;18.80;56.70
73277;DHT22;61501;43.316;5.372;2023-04-25T10:29:01;18.60;57.30
73277;DHT22;61501;43.316;5.372;2023-04-25T10:31:28;18.80;57.20
73277;DHT22;61501;43.316;5.372;2023-04-25T10:33:54;18.70;57.70
73277;DHT22;61501;43.316;5.372;2023-04-25T10:36:24;18.70;57.10
73277;DHT22;61501;43.316;5.372;2023-04-25T10:38:52;18.70;56.90
73277;DHT22;61501;43.316;5.372;2023-04-25T10:41:22;18.60;57.30
73277;DHT22;61501;43.316;5.372;2023-04-25T10:43:49;18.50;60.90
73277;DHT22;61501;43.316;5.372;2023-04-25T10:46:25;18.40;63.60
73277;DHT22;61501;43.316;5.372;2023-04-25T10:48:59;18.60;60.60
73277;DHT22;61501;43.316;5.372;2023-04-25T10:51:35;18.50;62.90
73277;DHT22;61501;43.316;5.372;2023-04-25T10:54:06;18.60;63.10
73277;DHT22;61501;43.316;5.372;2023-04-25T11:01:36;19.00;60.00
73277;DHT22;61501;43.316;5.372;2023-04-25T11:04:03;19.00;57.00
73277;DHT22;61501;43.316;5.372;2023-04-25T11:09:10;19.30;57.00
73277;DHT22;61501;43.316;5.372;2023-04-25T11:11:38;19.30;59.70
73277;DHT22;61501;43.316;5.372;2023-04-25T11:14:04;19.10;59.40
73277;DHT22;61501;43.316;5.372;2023-04-25T11:16:30;19.10;57.50
73277;DHT22;61501;43.316;5.372;2023-04-25T11:18:57;19.00;59.80
73277;DHT22;61501;43.316;5.372;2023-04-25T11:21:24;19.00;61.10
73277;DHT22;61501;43.316;5.372;2023-04-25T11:23:51;19.10;59.40
73277;DHT22;61501;43.316;5.372;2023-04-25T11:26:19;19.30;59.10
73277;DHT22;61501;43.316;5.372;2023-04-25T11:28:45;19.20;61.40
73277;DHT22;61501;43.316;5.372;2023-04-25T11:31:12;19.10;61.60
73277;DHT22;61501;43.316;5.372;2023-04-25T11:33:38;19.00;60.60
73277;DHT22;61501;43.316;5.372;2023-04-25T11:36:04;19.10;61.80
73277;DHT22;61501;43.316;5.372;2023-04-25T11:38:30;19.30;56.60
73277;DHT22;61501;43.316;5.372;2023-04-25T11:40:56;19.50;56.80
73277;DHT22;61501;43.316;5.372;2023-04-25T11:43:23;19.50;57.20
73277;DHT22;61501;43.316;5.372;2023-04-25T11:45:49;19.50;58.10
73277;DHT22;61501;43.316;5.372;2023-04-25T11:48:16;19.60;57.50
73277;DHT22;61501;43.316;5.372;2023-04-25T11:50:42;19.90;58.10
73277;DHT22;61501;43.316;5.372;2023-04-25T11:53:08;20.00;59.40
73277;DHT22;61501;43.316;5.372;2023-04-25T11:55:34;19.60;59.20
73277;DHT22;61501;43.316;5.372;2023-04-25T11:58:00;19.70;57.90
73277;DHT22;61501;43.316;5.372;2023-04-25T12:00:26;19.70;59.90
73277;DHT22;61501;43.316;5.372;2023-04-25T12:02:53;19.70;60.40
73277;DHT22;61501;43.316;5.372;2023-04-25T12:05:23;19.80;60.60
73277;DHT22;61501;43.316;5.372;2023-04-25T12:07:49;20.30;59.20
73277;DHT22;61501;43.316;5.372;2023-04-25T12:10:18;20.70;57.20
73277;DHT22;61501;43.316;5.372;2023-04-25T12:12:45;21.00;54.70
73277;DHT22;61501;43.316;5.372;2023-04-25T12:15:18;21.20;54.90
73277;DHT22;61501;43.316;5.372;2023-04-25T12:17:51;20.80;57.10
73277;DHT22;61501;43.316;5.372;2023-04-25T12:20:19;20.80;54.10
73277;DHT22;61501;43.316;5.372;2023-04-25T12:22:47;20.80;52.60
73277;DHT22;61501;43.316;5.372;2023-04-25T12:25:42;21.00;49.20
73277;DHT22;61501;43.316;5.372;2023-04-25T12:31:03;21.50;48.10
73277;DHT22;61501;43.316;5.372;2023-04-25T12:33:31;22.20;48.70
73277;DHT22;61501;43.316;5.372;2023-04-25T12:35:58;22.40;49.50
73277;DHT22;61501;43.316;5.372;2023-04-25T12:38:28;22.10;48.90
73277;DHT22;61501;43.316;5.372;2023-04-25T12:40:58;21.50;50.60
73277;DHT22;61501;43.316;5.372;2023-04-25T12:43:24;21.30;52.90
73277;DHT22;61501;43.316;5.372;2023-04-25T12:45:51;21.00;53.90
73277;DHT22;61501;43.316;5.372;2023-04-25T12:48:17;21.60;49.60
73277;DHT22;61501;43.316;5.372;2023-04-25T12:50:43;22.00;50.00
73277;DHT22;61501;43.316;5.372;2023-04-25T12:53:09;22.20;46.40
73277;DHT22;61501;43.316;5.372;2023-04-25T12:55:35;22.60;44.80
73277;DHT22;61501;43.316;5.372;2023-04-25T12:58:01;22.80;43.10
73277;DHT22;61501;43.316;5.372;2023-04-25T13:00:27;22.20;44.20
73277;DHT22;61501;43.316;5.372;2023-04-25T13:02:52;22.20;44.80
73277;DHT22;61501;43.316;5.372;2023-04-25T13:05:18;22.00;45.70
73277;DHT22;61501;43.316;5.372;2023-04-25T13:07:44;21.90;45.00
73277;DHT22;61501;43.316;5.372;2023-04-25T13:10:09;22.70;45.60
73277;DHT22;61501;43.316;5.372;2023-04-25T13:12:36;22.70;42.70
73277;DHT22;61501;43.316;5.372;2023-04-25T13:15:01;22.50;43.00
73277;DHT22;61501;43.316;5.372;2023-04-25T13:17:27;22.60;44.00
73277;DHT22;61501;43.316;5.372;2023-04-25T13:19:52;22.30;44.60
73277;DHT22;61501;43.316;5.372;2023-04-25T13:22:18;22.20;46.40
73277;DHT22;61501;43.316;5.372;2023-04-25T13:24:45;22.70;44.40
73277;DHT22;61501;43.316;5.372;2023-04-25T13:27:11;22.50;43.00
73277;DHT22;61501;43.316;5.372;2023-04-25T13:29:37;22.90;42.40
73277;DHT22;61501;43.316;5.372;2023-04-25T13:32:04;23.10;42.40
73277;DHT22;61501;43.316;5.372;2023-04-25T13:34:30;22.90;41.40
73277;DHT22;61501;43.316;5.372;2023-04-25T13:36:56;23.00;41.30
73277;DHT22;61501;43.316;5.372;2023-04-25T13:39:22;23.10;40.80
73277;DHT22;61501;43.316;5.372;2023-04-25T13:41:47;22.60;41.90
73277;DHT22;61501;43.316;5.372;2023-04-25T13:44:13;22.30;42.70
73277;DHT22;61501;43.316;5.372;2023-04-25T13:46:38;22.60;41.40
73277;DHT22;61501;43.316;5.372;2023-04-25T13:49:04;22.70;40.70
73277;DHT22;61501;43.316;5.372;2023-04-25T13:51:30;22.60;41.50
73277;DHT22;61501;43.316;5.372;2023-04-25T13:53:56;23.20;40.10
73277;DHT22;61501;43.316;5.372;2023-04-25T13:56:22;22.90;40.80
73277;DHT22;61501;43.316;5.372;2023-04-25T13:58:52;23.10;40.00
73277;DHT22;61501;43.316;5.372;2023-04-25T14:01:18;22.60;40.60
73277;DHT22;61501;43.316;5.372;2023-04-25T14:03:44;22.50;42.20
73277;DHT22;61501;43.316;5.372;2023-04-25T14:06:10;22.60;40.80
73277;DHT22;61501;43.316;5.372;2023-04-25T14:08:38;23.10;40.90
73277;DHT22;61501;43.316;5.372;2023-04-25T14:11:04;23.00;40.10
73277;DHT22;61501;43.316;5.372;2023-04-25T14:13:29;23.50;39.00
73277;DHT22;61501;43.316;5.372;2023-04-25T14:15:55;23.30;39.50
73277;DHT22;61501;43.316;5.372;2023-04-25T14:18:21;23.10;40.00
73277;DHT22;61501;43.316;5.372;2023-04-25T14:20:47;23.10;39.30
73277;DHT22;61501;43.316;5.372;2023-04-25T14:23:13;23.10;40.30
73277;DHT22;61501;43.316;5.372;2023-04-25T14:25:39;23.00;38.90
73277;DHT22;61501;43.316;5.372;2023-04-25T14:28:05;22.70;39.90
73277;DHT22;61501;43.316;5.372;2023-04-25T14:30:31;22.30;40.60
73277;DHT22;61501;43.316;5.372;2023-04-25T14:32:57;23.00;39.50
73277;DHT22;61501;43.316;5.372;2023-04-25T14:35:22;23.50;39.00
73277;DHT22;61501;43.316;5.372;2023-04-25T14:37:48;23.90;37.50
73277;DHT22;61501;43.316;5.372;2023-04-25T14:40:14;24.00;37.10
73277;DHT22;61501;43.316;5.372;2023-04-25T14:42:40;23.40;37.30
73277;DHT22;61501;43.316;5.372;2023-04-25T14:45:07;23.30;37.70
73277;DHT22;61501;43.316;5.372;2023-04-25T14:47:34;23.60;38.30
73277;DHT22;61501;43.316;5.372;2023-04-25T14:50:00;23.40;38.80
73277;DHT22;61501;43.316;5.372;2023-04-25T14:52:26;23.10;39.10
73277;DHT22;61501;43.316;5.372;2023-04-25T14:54:52;23.10;40.20
73277;DHT22;61501;43.316;5.372;2023-04-25T14:57:18;23.50;37.60
73277;DHT22;61501;43.316;5.372;2023-04-25T14:59:44;23.80;37.30
73277;DHT22;61501;43.316;5.372;2023-04-25T15:02:11;23.90;37.40
73277;DHT22;61501;43.316;5.372;2023-04-25T15:04:36;23.50;37.40
73277;DHT22;61501;43.316;5.372;2023-04-25T15:07:02;23.40;38.50
73277;DHT22;61501;43.316;5.372;2023-04-25T15:09:29;23.30;37.90
73277;DHT22;61501;43.316;5.372;2023-04-25T15:11:55;23.10;38.10
73277;DHT22;61501;43.316;5.372;2023-04-25T15:14:21;22.80;38.50
73277;DHT22;61501;43.316;5.372;2023-04-25T15:16:47;23.10;38.60
73277;DHT22;61501;43.316;5.372;2023-04-25T15:19:13;22.90;38.90
73277;DHT22;61501;43.316;5.372;2023-04-25T15:21:39;22.40;38.40
73277;DHT22;61501;43.316;5.372;2023-04-25T15:24:05;22.10;39.10
73277;DHT22;61501;43.316;5.372;2023-04-25T15:26:30;22.30;38.80
73277;DHT22;61501;43.316;5.372;2023-04-25T15:28:56;22.40;38.30
73277;DHT22;61501;43.316;5.372;2023-04-25T15:31:22;22.60;37.70
73277;DHT22;61501;43.316;5.372;2023-04-25T15:33:47;22.50;37.90
73277;DHT22;61501;43.316;5.372;2023-04-25T15:36:13;22.40;38.00
73277;DHT22;61501;43.316;5.372;2023-04-25T15:38:41;22.30;39.40
73277;DHT22;61501;43.316;5.372;2023-04-25T15:41:07;22.50;38.60
73277;DHT22;61501;43.316;5.372;2023-04-25T15:43:33;22.40;38.50